createdAt,value
2018-09-30T00:02:07.235Z,7.43
2018-09-30T00:04:35.697Z,7.67
2018-09-30T00:07:04.219Z,7.90
2018-09-30T00:09:32.790Z,7.73
2018-09-30T00:12:02.620Z,7.17
2018-09-30T00:14:31.162Z,7.23
2018-09-30T00:17:00.015Z,7.10
2018-09-30T00:19:28.570Z,7.33
2018-09-30T00:21:57.003Z,7.50
2018-09-30T00:24:30.775Z,6.97
2018-09-30T00:27:00.720Z,6.77
2018-09-30T00:29:30.102Z,7.10
2018-09-30T00:31:59.359Z,6.13
2018-09-30T00:34:28.906Z,7.53
2018-09-30T00:36:58.497Z,7.97
2018-09-30T00:39:27.613Z,7.77
2018-09-30T00:41:56.151Z,7.13
2018-09-30T00:44:25.199Z,7.67
2018-09-30T00:46:54.063Z,6.97
2018-09-30T00:49:22.582Z,6.80
2018-09-30T00:51:51.052Z,6.80
2018-09-30T00:54:19.870Z,7.13
2018-09-30T00:56:48.351Z,7.00
2018-09-30T00:59:16.826Z,5.80
2018-09-30T01:01:45.319Z,7.90
2018-09-30T01:04:13.782Z,6.83
2018-09-30T01:06:42.239Z,6.07
2018-09-30T01:09:12.958Z,6.70
2018-09-30T01:11:41.835Z,6.50
2018-09-30T01:14:10.326Z,7.20
2018-09-30T01:16:39.276Z,6.70
2018-09-30T01:19:07.766Z,6.23
2018-09-30T01:21:36.672Z,5.60
2018-09-30T01:24:05.306Z,6.77
2018-09-30T01:26:33.806Z,7.33
2018-09-30T01:29:02.286Z,6.17
2018-09-30T01:31:30.774Z,6.90
2018-09-30T01:33:59.250Z,5.80
2018-09-30T01:36:27.792Z,5.70
2018-09-30T01:38:56.297Z,6.10
2018-09-30T01:41:25.029Z,5.93
2018-09-30T01:43:53.493Z,5.73
2018-09-30T01:46:21.991Z,6.03
2018-09-30T01:48:50.434Z,6.27
2018-09-30T01:51:18.925Z,6.03
2018-09-30T01:53:47.394Z,6.30
2018-09-30T01:56:15.896Z,6.10
2018-09-30T01:58:44.367Z,7.67
2018-09-30T02:01:12.999Z,5.87
2018-09-30T02:03:41.591Z,5.50
2018-09-30T02:06:10.136Z,5.90
2018-09-30T02:08:38.605Z,5.93
2018-09-30T02:11:07.193Z,6.10
2018-09-30T02:13:35.695Z,6.23
2018-09-30T02:16:04.162Z,5.40
2018-09-30T02:18:32.652Z,7.10
2018-09-30T02:21:01.112Z,5.50
2018-09-30T02:23:29.593Z,6.00
2018-09-30T02:25:58.062Z,5.97
2018-09-30T02:28:26.544Z,5.73
2018-09-30T02:30:54.996Z,5.97
2018-09-30T02:33:23.474Z,5.57
2018-09-30T02:35:51.950Z,4.90
2018-09-30T02:38:20.809Z,5.30
2018-09-30T02:40:49.392Z,5.67
2018-09-30T02:43:17.935Z,6.07
2018-09-30T02:45:46.400Z,6.30
2018-09-30T02:48:15.096Z,5.07
2018-09-30T02:50:43.617Z,4.50
2018-09-30T02:53:12.210Z,5.07
2018-09-30T02:55:40.689Z,5.97
2018-09-30T02:58:09.236Z,5.97
2018-09-30T03:00:37.708Z,5.37
2018-09-30T03:03:06.261Z,4.67
2018-09-30T03:05:34.747Z,5.60
2018-09-30T03:08:08.473Z,6.10
2018-09-30T03:10:36.947Z,5.03
2018-09-30T03:13:05.469Z,5.77
2018-09-30T03:15:33.959Z,4.67
2018-09-30T03:18:02.449Z,5.00
2018-09-30T03:20:30.934Z,5.33
2018-09-30T03:22:59.464Z,5.40
2018-09-30T03:25:27.929Z,5.50
2018-09-30T03:27:56.416Z,4.40
2018-09-30T03:30:24.887Z,6.00
2018-09-30T03:32:53.381Z,5.87
2018-09-30T03:35:21.843Z,5.00
2018-09-30T03:37:50.956Z,4.63
2018-09-30T03:40:19.478Z,4.40
2018-09-30T03:42:48.005Z,5.23
2018-09-30T03:45:16.466Z,5.57
2018-09-30T03:47:44.954Z,4.43
2018-09-30T03:50:13.432Z,4.57
2018-09-30T03:52:41.932Z,4.77
2018-09-30T03:55:10.407Z,5.33
2018-09-30T03:57:38.895Z,4.13
2018-09-30T04:00:07.912Z,4.17
2018-09-30T04:02:36.410Z,4.20
2018-09-30T04:05:04.939Z,3.90
2018-09-30T04:07:33.450Z,4.70
2018-09-30T04:10:02.090Z,4.50
2018-09-30T04:12:30.547Z,4.33
2018-09-30T04:14:59.076Z,3.77
2018-09-30T04:17:27.563Z,4.97
2018-09-30T04:19:56.020Z,4.30
2018-09-30T04:22:24.495Z,4.33
2018-09-30T04:24:52.968Z,3.80
2018-09-30T04:27:21.474Z,5.23
2018-09-30T04:29:49.971Z,4.50
2018-09-30T04:32:18.718Z,4.50
2018-09-30T04:34:47.230Z,4.90
2018-09-30T04:37:15.688Z,4.60
2018-09-30T04:39:44.194Z,4.40
2018-09-30T04:42:12.647Z,3.87
2018-09-30T04:44:41.113Z,4.27
2018-09-30T04:47:09.582Z,3.87
2018-09-30T04:49:38.043Z,3.83
2018-09-30T04:52:06.748Z,5.00
2018-09-30T04:54:35.247Z,4.67
2018-09-30T04:57:03.724Z,3.40
2018-09-30T04:59:32.199Z,4.00
2018-09-30T05:02:00.680Z,3.67
2018-09-30T05:04:29.946Z,4.30
2018-09-30T05:06:58.448Z,4.23
2018-09-30T05:09:26.946Z,3.70
2018-09-30T05:11:55.465Z,3.63
2018-09-30T05:14:23.969Z,4.27
2018-09-30T05:16:52.464Z,3.87
2018-09-30T05:19:20.918Z,4.80
2018-09-30T05:21:49.426Z,3.73
2018-09-30T05:24:17.903Z,3.43
2018-09-30T05:26:46.389Z,3.93
2018-09-30T05:29:14.865Z,3.27
2018-09-30T05:31:43.376Z,3.50
2018-09-30T05:34:11.830Z,3.40
2018-09-30T05:36:41.198Z,3.00
2018-09-30T05:39:10.853Z,3.20
2018-09-30T05:41:39.339Z,2.63
2018-09-30T05:44:08.733Z,5.87
2018-09-30T05:46:37.215Z,3.00
2018-09-30T05:49:05.821Z,3.40
2018-09-30T05:51:34.533Z,3.10
2018-09-30T05:54:03.035Z,3.37
2018-09-30T05:56:31.485Z,3.03
2018-09-30T05:58:59.959Z,3.40
2018-09-30T06:01:28.447Z,3.57
2018-09-30T06:03:56.955Z,3.60
2018-09-30T06:06:25.476Z,3.70
2018-09-30T06:08:54.000Z,3.57
2018-09-30T06:11:22.460Z,3.27
2018-09-30T06:13:51.017Z,2.80
2018-09-30T06:16:19.488Z,2.60
2018-09-30T06:18:47.965Z,3.37
2018-09-30T06:21:16.437Z,2.77
2018-09-30T06:23:45.035Z,3.27
2018-09-30T06:26:13.579Z,3.43
2018-09-30T06:28:42.137Z,2.90
2018-09-30T06:31:10.829Z,3.77
2018-09-30T06:33:39.313Z,2.73
2018-09-30T06:36:07.739Z,3.40
2018-09-30T06:38:36.237Z,3.10
2018-09-30T06:41:05.701Z,3.63
2018-09-30T06:43:34.218Z,3.00
2018-09-30T06:46:03.369Z,3.37
2018-09-30T06:48:31.908Z,3.70
2018-09-30T06:51:00.576Z,4.00
2018-09-30T06:53:29.070Z,4.20
2018-09-30T06:55:58.681Z,3.63
2018-09-30T06:58:27.648Z,4.07
2018-09-30T07:00:56.132Z,3.97
2018-09-30T07:03:24.664Z,4.03
2018-09-30T07:05:53.107Z,4.87
2018-09-30T07:08:21.699Z,5.20
2018-09-30T07:10:50.168Z,4.00
2018-09-30T07:13:18.641Z,4.23
2018-09-30T07:15:47.114Z,4.10
2018-09-30T07:18:15.922Z,4.73
2018-09-30T07:20:44.419Z,4.33
2018-09-30T07:23:12.905Z,4.70
2018-09-30T07:25:41.380Z,4.13
2018-09-30T07:28:10.027Z,4.50
2018-09-30T07:30:38.639Z,5.20
2018-09-30T07:33:07.248Z,4.53
2018-09-30T07:35:35.771Z,5.40
2018-09-30T07:38:04.425Z,5.10
2018-09-30T07:40:34.451Z,5.13
2018-09-30T07:43:03.449Z,4.87
2018-09-30T07:45:33.023Z,4.93
2018-09-30T07:48:01.873Z,5.20
2018-09-30T07:50:30.526Z,5.50
2018-09-30T07:52:59.603Z,5.53
2018-09-30T07:55:28.246Z,5.50
2018-09-30T07:57:56.760Z,5.13
2018-09-30T08:00:28.619Z,5.23
2018-09-30T08:02:57.660Z,6.10
2018-09-30T08:05:29.635Z,6.00
2018-09-30T08:07:58.156Z,4.87
2018-09-30T08:10:27.045Z,5.17
2018-09-30T08:12:55.697Z,5.07
2018-09-30T08:15:24.888Z,5.30
2018-09-30T08:17:54.148Z,5.30
2018-09-30T08:20:22.931Z,5.30
2018-09-30T08:22:52.082Z,4.70
2018-09-30T08:25:21.374Z,5.63
2018-09-30T08:27:50.704Z,4.90
2018-09-30T08:30:19.336Z,5.80
2018-09-30T08:32:47.963Z,3.90
2018-09-30T08:35:17.808Z,2.80
2018-09-30T08:37:51.687Z,2.03
2018-09-30T08:40:25.613Z,2.17
2018-09-30T08:42:54.617Z,1.50
2018-09-30T08:45:23.331Z,1.67
2018-09-30T08:47:53.638Z,2.00
2018-09-30T08:50:30.563Z,1.70
2018-09-30T08:53:04.451Z,3.00
2018-09-30T08:55:33.026Z,1.20
2018-09-30T08:58:01.577Z,2.00
2018-09-30T09:00:31.016Z,2.33
2018-09-30T09:03:00.605Z,2.47
2018-09-30T09:05:29.603Z,1.70
2018-09-30T09:07:58.616Z,1.50
2018-09-30T09:10:27.177Z,1.70
2018-09-30T09:12:57.054Z,2.07
2018-09-30T09:15:26.585Z,1.87
2018-09-30T09:17:56.651Z,1.90
2018-09-30T09:20:26.623Z,2.20
2018-09-30T09:22:55.931Z,2.70
2018-09-30T09:25:24.979Z,2.73
2018-09-30T09:27:54.526Z,1.93
2018-09-30T09:30:23.437Z,1.83
2018-09-30T09:32:52.276Z,1.80
2018-09-30T09:35:21.319Z,2.80
2018-09-30T09:37:49.862Z,2.40
2018-09-30T09:40:20.102Z,2.00
2018-09-30T09:42:48.598Z,2.53
2018-09-30T09:45:19.025Z,1.97
2018-09-30T09:47:55.923Z,2.23
2018-09-30T09:50:24.405Z,2.33
2018-09-30T09:52:52.910Z,2.87
2018-09-30T09:55:22.327Z,2.17
2018-09-30T09:57:50.859Z,2.10
2018-09-30T10:00:24.806Z,1.87
2018-09-30T10:02:53.325Z,1.80
2018-09-30T10:05:21.799Z,3.00
2018-09-30T10:07:50.386Z,2.03
2018-09-30T10:10:19.004Z,2.57
2018-09-30T10:12:47.725Z,2.33
2018-09-30T10:15:16.310Z,2.33
2018-09-30T10:17:44.865Z,2.30
2018-09-30T10:20:13.426Z,1.80
2018-09-30T10:22:41.903Z,2.10
2018-09-30T10:25:10.466Z,2.50
2018-09-30T10:27:38.926Z,3.10
2018-09-30T10:30:07.486Z,2.90
2018-09-30T10:32:36.155Z,2.90
2018-09-30T10:35:04.744Z,2.93
2018-09-30T10:37:33.236Z,2.73
2018-09-30T10:40:01.710Z,3.43
2018-09-30T10:42:30.707Z,2.53
2018-09-30T10:44:59.176Z,2.77
2018-09-30T10:47:27.684Z,3.47
2018-09-30T10:49:56.141Z,2.43
2018-09-30T10:52:25.628Z,2.93
2018-09-30T10:54:54.144Z,2.80
2018-09-30T10:57:22.651Z,2.97
2018-09-30T10:59:51.159Z,2.63
2018-09-30T11:02:19.694Z,2.60
2018-09-30T11:04:48.453Z,2.70
2018-09-30T11:07:16.944Z,3.77
2018-09-30T11:09:45.599Z,3.63
2018-09-30T11:12:14.362Z,2.63
2018-09-30T11:14:43.221Z,3.30
2018-09-30T11:17:11.722Z,3.30
2018-09-30T11:19:40.201Z,3.23
2018-09-30T11:22:08.706Z,3.27
2018-09-30T11:24:37.174Z,3.40
2018-09-30T11:27:05.866Z,3.90
2018-09-30T11:29:34.365Z,3.63
2018-09-30T11:32:02.962Z,3.90
2018-09-30T11:34:31.442Z,3.17
2018-09-30T11:36:59.953Z,3.57
2018-09-30T11:39:29.407Z,2.70
2018-09-30T11:41:57.881Z,3.17
2018-09-30T11:44:26.375Z,3.63
2018-09-30T11:46:54.881Z,4.03
2018-09-30T11:49:24.607Z,3.27
2018-09-30T11:51:53.149Z,3.13
2018-09-30T11:54:21.763Z,3.40
2018-09-30T11:56:50.248Z,4.30
2018-09-30T11:59:18.721Z,3.40
2018-09-30T12:01:47.199Z,2.67
2018-09-30T12:04:15.687Z,3.27
2018-09-30T12:06:44.160Z,3.13
2018-09-30T12:09:12.680Z,3.30
2018-09-30T12:11:41.169Z,3.83
2018-09-30T12:14:09.719Z,3.47
2018-09-30T12:16:38.218Z,4.50
2018-09-30T12:19:06.762Z,3.00
2018-09-30T12:21:35.234Z,3.77
2018-09-30T12:24:04.669Z,3.67
2018-09-30T12:26:33.143Z,3.83
2018-09-30T12:29:01.788Z,3.67
2018-09-30T12:31:30.305Z,3.53
2018-09-30T12:33:58.810Z,4.50
2018-09-30T12:36:27.312Z,3.30
2018-09-30T12:38:55.806Z,3.20
2018-09-30T12:41:24.293Z,3.50
2018-09-30T12:43:52.721Z,2.80
2018-09-30T12:46:21.226Z,3.10
2018-09-30T12:48:49.750Z,2.97
2018-09-30T12:51:18.264Z,3.30
2018-09-30T12:53:46.779Z,3.63
2018-09-30T12:56:15.792Z,4.93
2018-09-30T12:58:44.381Z,3.57
2018-09-30T13:01:12.878Z,4.00
2018-09-30T13:03:41.347Z,3.77
2018-09-30T13:06:09.926Z,3.77
2018-09-30T13:08:38.540Z,3.67
2018-09-30T13:11:07.139Z,5.87
2018-09-30T13:13:35.695Z,4.63
2018-09-30T13:16:04.232Z,4.60
2018-09-30T13:18:32.980Z,3.47
2018-09-30T13:21:01.995Z,4.20
2018-09-30T13:23:30.429Z,5.30
2018-09-30T13:25:58.998Z,2.97
2018-09-30T13:28:27.501Z,3.73
2018-09-30T13:30:56.075Z,3.67
2018-09-30T13:33:24.587Z,3.63
2018-09-30T13:35:58.970Z,4.20
2018-09-30T13:38:27.483Z,3.90
2018-09-30T13:40:56.150Z,4.20
2018-09-30T13:43:24.511Z,3.57
2018-09-30T13:45:53.005Z,3.60
2018-09-30T13:48:21.464Z,3.43
2018-09-30T13:50:49.967Z,3.93
2018-09-30T13:53:18.579Z,3.20
2018-09-30T13:55:47.109Z,3.90
2018-09-30T13:58:15.585Z,3.47
2018-09-30T14:00:44.162Z,4.47
2018-09-30T14:03:12.627Z,4.17
2018-09-30T14:05:41.138Z,4.37
2018-09-30T14:08:09.775Z,3.87
2018-09-30T14:10:38.516Z,3.03
2018-09-30T14:13:07.030Z,2.80
2018-09-30T14:15:35.541Z,3.10
2018-09-30T14:18:04.042Z,3.30
2018-09-30T14:20:32.532Z,3.57
2018-09-30T14:23:01.089Z,3.30
2018-09-30T14:25:29.537Z,3.40
2018-09-30T14:27:58.045Z,4.17
2018-09-30T14:30:26.533Z,3.80
2018-09-30T14:32:54.994Z,3.37
2018-09-30T14:35:23.473Z,3.97
2018-09-30T14:37:52.015Z,2.53
2018-09-30T14:40:20.491Z,3.20
2018-09-30T14:42:48.978Z,3.10
2018-09-30T14:45:17.569Z,2.83
2018-09-30T14:47:46.081Z,2.77
2018-09-30T14:50:14.746Z,3.17
2018-09-30T14:52:43.260Z,3.37
2018-09-30T14:55:11.804Z,2.90
2018-09-30T14:57:40.330Z,2.90
2018-09-30T15:00:08.895Z,3.83
2018-09-30T15:02:38.363Z,3.53
2018-09-30T15:05:08.355Z,3.20
2018-09-30T15:07:36.954Z,3.60
2018-09-30T15:10:05.482Z,2.80
2018-09-30T15:12:36.847Z,2.93
2018-09-30T15:15:08.518Z,2.97
2018-09-30T15:17:37.413Z,3.97
2018-09-30T15:20:05.933Z,3.53
2018-09-30T15:22:34.734Z,4.50
2018-09-30T15:25:03.248Z,5.10
2018-09-30T15:27:33.067Z,5.10
2018-09-30T15:30:02.424Z,4.33
2018-09-30T15:32:30.957Z,3.80
2018-09-30T15:34:59.934Z,5.07
2018-09-30T15:37:28.421Z,4.27
2018-09-30T15:39:57.506Z,4.50
2018-09-30T15:42:25.992Z,4.47
2018-09-30T15:44:54.610Z,5.57
2018-09-30T15:47:23.059Z,5.80
2018-09-30T15:49:51.579Z,4.60
2018-09-30T15:52:20.098Z,4.60
2018-09-30T15:54:48.589Z,3.93
2018-09-30T15:57:17.061Z,4.17
2018-09-30T15:59:45.842Z,4.90
2018-09-30T16:02:14.310Z,3.77
2018-09-30T16:04:42.913Z,4.93
2018-09-30T16:07:11.308Z,5.57
2018-09-30T16:09:39.815Z,5.23
2018-09-30T16:12:08.370Z,4.50
2018-09-30T16:14:37.864Z,6.10
2018-09-30T16:17:06.428Z,5.43
2018-09-30T16:19:34.933Z,5.63
2018-09-30T16:22:03.531Z,6.83
2018-09-30T16:24:32.181Z,5.13
2018-09-30T16:27:00.693Z,5.23
2018-09-30T16:29:29.185Z,4.67
2018-09-30T16:31:57.661Z,5.60
2018-09-30T16:34:26.115Z,5.33
2018-09-30T16:36:54.621Z,5.90
2018-09-30T16:39:23.133Z,5.13
2018-09-30T16:41:51.606Z,4.60
2018-09-30T16:44:20.218Z,6.20
2018-09-30T16:46:48.708Z,5.57
2018-09-30T16:49:17.220Z,6.77
2018-09-30T16:51:45.850Z,5.40
2018-09-30T16:54:14.376Z,5.77
2018-09-30T16:56:43.123Z,5.93
2018-09-30T16:59:11.921Z,5.77
2018-09-30T17:01:40.451Z,7.53
2018-09-30T17:04:08.921Z,5.93
2018-09-30T17:06:37.458Z,6.30
2018-09-30T17:09:06.772Z,6.53
2018-09-30T17:11:35.332Z,6.20
2018-09-30T17:14:03.859Z,7.30
2018-09-30T17:16:32.508Z,6.73
2018-09-30T17:19:01.668Z,7.77
2018-09-30T17:21:30.337Z,7.33
2018-09-30T17:23:58.868Z,7.20
2018-09-30T17:26:34.353Z,6.90
2018-09-30T17:29:02.885Z,6.87
2018-09-30T17:31:31.468Z,6.90
2018-09-30T17:33:59.973Z,6.13
2018-09-30T17:36:28.487Z,7.50
2018-09-30T17:38:57.051Z,6.30
2018-09-30T17:41:25.565Z,6.73
2018-09-30T17:43:54.121Z,6.40
2018-09-30T17:46:22.626Z,6.83
2018-09-30T17:48:51.153Z,7.20
2018-09-30T17:51:19.696Z,7.30
2018-09-30T17:53:48.586Z,8.70
2018-09-30T17:56:17.174Z,7.73
2018-09-30T17:58:45.716Z,7.53
